Time;durP1;ratioP1;P1;durP2;ratioP2;P2;SDS_P1;SDS_P2;PMS_P1;PMS_P2;Temp;Humidity;BMP_temperature;BMP_pressure;BME280_temperature;BME280_humidity;BME280_pressure;Samples;Min_cycle;Max_cycle;Signal;HPM_P1;HPM_P2
2023/10/07 00:02:11;;;;;;;24.97;22.83;;;;;;;;;;5091666;28;20460;-78
2023/10/07 00:04:39;;;;;;;24.33;22.70;;;;;;;;;;5091187;28;20482;-76
2023/10/07 00:07:10;;;;;;;23.33;21.27;;;;;;;;;;5091610;28;20464;-76
2023/10/07 00:09:37;;;;;;;22.90;21.30;;;;;;;;;;5090970;28;20525;-76
2023/10/07 00:12:04;;;;;;;23.60;21.90;;;;;;;;;;5091855;28;20464;-76
2023/10/07 00:14:31;;;;;;;23.87;22.20;;;;;;;;;;5090631;28;20449;-76
2023/10/07 00:17:05;;;;;;;24.77;22.63;;;;;;;;;;5091279;28;20955;-77
2023/10/07 00:19:33;;;;;;;23.20;21.40;;;;;;;;;;5091076;28;20930;-77
2023/10/07 00:22:00;;;;;;;22.93;21.10;;;;;;;;;;5091555;28;20455;-76
2023/10/07 00:24:32;;;;;;;23.97;22.00;;;;;;;;;;5091090;28;20452;-76
2023/10/07 00:27:00;;;;;;;21.90;20.37;;;;;;;;;;5091355;28;20819;-76
2023/10/07 00:29:39;;;;;;;22.97;21.00;;;;;;;;;;5091240;28;20471;-77
2023/10/07 00:32:07;;;;;;;23.10;21.40;;;;;;;;;;5091673;28;20879;-77
2023/10/07 00:34:39;;;;;;;23.10;21.20;;;;;;;;;;5090725;28;20456;-75
2023/10/07 00:37:07;;;;;;;23.77;21.97;;;;;;;;;;5091388;28;20479;-77
2023/10/07 00:39:38;;;;;;;25.23;23.03;;;;;;;;;;5090940;28;20457;-77
2023/10/07 00:42:07;;;;;;;24.63;22.60;;;;;;;;;;5091239;28;20507;-77
2023/10/07 00:44:35;;;;;;;24.30;22.50;;;;;;;;;;5090137;28;21004;-77
2023/10/07 00:47:12;;;;;;;21.87;20.27;;;;;;;;;;5090677;28;20995;-78
2023/10/07 00:49:42;;;;;;;23.27;21.60;;;;;;;;;;5091033;28;20485;-77
2023/10/07 00:52:11;;;;;;;24.03;21.97;;;;;;;;;;5090815;28;20456;-77
2023/10/07 00:54:50;;;;;;;23.63;21.77;;;;;;;;;;5090232;28;20876;-75
2023/10/07 00:57:24;;;;;;;24.80;22.50;;;;;;;;;;5090862;28;20464;-76
2023/10/07 00:59:55;;;;;;;23.90;22.03;;;;;;;;;;5091116;28;20524;-77
2023/10/07 01:02:29;;;;;;;20.33;19.17;;;;;;;;;;5090725;28;20929;-77
2023/10/07 01:05:07;;;;;;;22.57;20.97;;;;;;;;;;5090344;28;20480;-76
2023/10/07 01:07:35;;;;;;;25.63;23.60;;;;;;;;;;5090919;28;20992;-76
2023/10/07 01:10:12;;;;;;;21.10;19.70;;;;;;;;;;5090538;28;20872;-76
2023/10/07 01:12:42;;;;;;;22.20;20.73;;;;;;;;;;5090832;28;20486;-76
2023/10/07 01:15:17;;;;;;;24.33;22.73;;;;;;;;;;5090298;28;20453;-78
2023/10/07 01:17:45;;;;;;;25.30;22.77;;;;;;;;;;5090850;28;20460;-78
2023/10/07 01:20:14;;;;;;;26.37;24.00;;;;;;;;;;5090682;28;20437;-76
2023/10/07 01:23:03;;;;;;;23.30;21.90;;;;;;;;;;5090704;28;20540;-77
2023/10/07 01:25:32;;;;;;;25.77;23.77;;;;;;;;;;5091081;28;20810;-76
2023/10/07 01:28:01;;;;;;;25.30;23.37;;;;;;;;;;5094568;28;20449;-77
2023/10/07 01:30:30;;;;;;;23.97;22.27;;;;;;;;;;5094653;28;20554;-76
2023/10/07 01:33:09;;;;;;;23.80;22.10;;;;;;;;;;5094297;28;20543;-77
2023/10/07 01:35:39;;;;;;;24.07;22.27;;;;;;;;;;5093628;28;20960;-76
2023/10/07 01:38:08;;;;;;;24.20;22.37;;;;;;;;;;5109291;28;21002;-77
2023/10/07 01:40:54;;;;;;;24.13;22.23;;;;;;;;;;5109516;27;21001;-77
2023/10/07 01:43:21;;;;;;;23.57;21.97;;;;;;;;;;5111758;28;20534;-76
2023/10/07 01:45:49;;;;;;;24.13;22.23;;;;;;;;;;5114142;28;21081;-76
2023/10/07 01:48:17;;;;;;;23.03;21.43;;;;;;;;;;5114444;28;20572;-77
2023/10/07 01:50:45;;;;;;;24.87;22.93;;;;;;;;;;5111105;28;20467;-76
2023/10/07 01:53:15;;;;;;;22.63;20.90;;;;;;;;;;5094327;28;20549;-77
2023/10/07 01:55:43;;;;;;;23.83;21.80;;;;;;;;;;5093408;28;20522;-77
2023/10/07 01:58:13;;;;;;;24.63;22.73;;;;;;;;;;5093357;28;20587;-76
2023/10/07 02:00:43;;;;;;;23.70;21.80;;;;;;;;;;5093744;28;20568;-77
2023/10/07 02:03:13;;;;;;;24.97;22.93;;;;;;;;;;5094092;28;20449;-77
2023/10/07 02:05:41;;;;;;;23.50;21.90;;;;;;;;;;5093500;28;20867;-76
2023/10/07 02:08:12;;;;;;;25.37;22.67;;;;;;;;;;5112827;28;20442;-77
2023/10/07 02:10:41;;;;;;;23.77;21.77;;;;;;;;;;5114238;28;20575;-77
2023/10/07 02:13:09;;;;;;;25.70;23.47;;;;;;;;;;5114297;28;20461;-77
2023/10/07 02:15:37;;;;;;;24.37;22.37;;;;;;;;;;5113586;28;20483;-78
2023/10/07 02:18:04;;;;;;;24.17;22.20;;;;;;;;;;5113536;27;20574;-76
2023/10/07 02:20:38;;;;;;;24.87;23.17;;;;;;;;;;5113967;28;20493;-76
2023/10/07 02:23:12;;;;;;;23.77;21.93;;;;;;;;;;5113829;28;20444;-76
2023/10/07 02:25:42;;;;;;;23.57;21.60;;;;;;;;;;5113503;28;20460;-76
2023/10/07 02:28:09;;;;;;;25.73;22.97;;;;;;;;;;5114167;28;20452;-77
2023/10/07 02:30:39;;;;;;;25.07;22.70;;;;;;;;;;5113663;28;20511;-76
2023/10/07 02:33:08;;;;;;;23.87;21.80;;;;;;;;;;5113757;28;20890;-77
2023/10/07 02:35:36;;;;;;;24.97;23.17;;;;;;;;;;5113250;27;20518;-76
2023/10/07 02:38:04;;;;;;;25.23;22.50;;;;;;;;;;5113451;28;20474;-77
2023/10/07 02:40:36;;;;;;;24.63;22.70;;;;;;;;;;5113468;28;20489;-77
2023/10/07 02:43:07;;;;;;;24.63;22.53;;;;;;;;;;5113801;28;20428;-77
2023/10/07 02:45:40;;;;;;;23.77;21.97;;;;;;;;;;5113163;28;20470;-76
2023/10/07 02:48:11;;;;;;;24.60;22.40;;;;;;;;;;5113388;28;20458;-77
2023/10/07 02:50:42;;;;;;;26.63;24.53;;;;;;;;;;5108898;27;20487;-76
2023/10/07 02:53:14;;;;;;;25.07;23.10;;;;;;;;;;5093137;28;20438;-77
2023/10/07 02:55:54;;;;;;;24.37;22.37;;;;;;;;;;5092508;28;20445;-77
2023/10/07 02:58:27;;;;;;;25.70;23.70;;;;;;;;;;5093262;28;20465;-77
2023/10/07 03:01:10;;;;;;;25.37;23.40;;;;;;;;;;5092947;28;20790;-77
2023/10/07 03:03:38;;;;;;;24.67;22.53;;;;;;;;;;5093113;28;20422;-76
2023/10/07 03:06:07;;;;;;;27.07;24.90;;;;;;;;;;5092509;28;20448;-78
2023/10/07 03:08:44;;;;;;;24.87;22.90;;;;;;;;;;5092793;28;20445;-77
2023/10/07 03:11:11;;;;;;;25.00;23.07;;;;;;;;;;5091875;27;20986;-77
2023/10/07 03:13:39;;;;;;;24.73;22.63;;;;;;;;;;5092536;28;20572;-76
2023/10/07 03:18:56;;;;;;;26.37;24.17;;;;;;;;;;5092493;28;20940;-78
2023/10/07 03:21:35;;;;;;;26.30;24.27;;;;;;;;;;5092631;28;20423;-76
2023/10/07 03:24:08;;;;;;;25.53;23.70;;;;;;;;;;5091969;28;20429;-77
2023/10/07 03:26:36;;;;;;;27.03;24.47;;;;;;;;;;5092366;28;20504;-76
2023/10/07 03:29:05;;;;;;;27.50;25.30;;;;;;;;;;5092128;28;20927;-77
2023/10/07 03:31:34;;;;;;;29.23;26.93;;;;;;;;;;5092362;28;20546;-77
2023/10/07 03:34:02;;;;;;;30.20;27.07;;;;;;;;;;5091783;28;20463;-76
2023/10/07 03:36:41;;;;;;;28.03;25.83;;;;;;;;;;5092447;28;20439;-77
2023/10/07 03:41:55;;;;;;;29.10;26.27;;;;;;;;;;5091377;28;20545;-76
2023/10/07 03:44:25;;;;;;;29.07;27.03;;;;;;;;;;5091312;28;20479;-77
2023/10/07 03:46:55;;;;;;;32.30;29.30;;;;;;;;;;5091939;28;20524;-76
2023/10/07 03:49:22;;;;;;;29.60;27.40;;;;;;;;;;5091505;28;20954;-76
2023/10/07 03:51:59;;;;;;;30.03;27.57;;;;;;;;;;5091698;28;20960;-76
2023/10/07 03:54:29;;;;;;;30.60;27.87;;;;;;;;;;5091246;28;20492;-76
2023/10/07 03:56:56;;;;;;;30.03;27.70;;;;;;;;;;5091937;28;20464;-76
2023/10/07 03:59:27;;;;;;;29.53;27.13;;;;;;;;;;5090958;28;20967;-76
2023/10/07 04:01:54;;;;;;;28.77;26.77;;;;;;;;;;5091867;28;20491;-77
2023/10/07 04:04:22;;;;;;;30.63;28.23;;;;;;;;;;5091380;28;20420;-77
2023/10/07 04:06:49;;;;;;;28.60;26.50;;;;;;;;;;5091628;28;20590;-76
2023/10/07 04:09:17;;;;;;;30.40;27.80;;;;;;;;;;5091357;28;20424;-77
2023/10/07 04:11:49;;;;;;;29.33;27.03;;;;;;;;;;5096053;28;20488;-76
2023/10/07 04:14:27;;;;;;;31.10;28.30;;;;;;;;;;5110874;28;20919;-76
2023/10/07 04:16:58;;;;;;;30.57;27.93;;;;;;;;;;5111734;28;20442;-77
2023/10/07 04:19:38;;;;;;;30.27;27.27;;;;;;;;;;5112111;28;20440;-77
2023/10/07 04:22:07;;;;;;;33.30;29.83;;;;;;;;;;5111503;28;20555;-76
2023/10/07 04:24:38;;;;;;;30.17;27.50;;;;;;;;;;5111001;28;20497;-77
2023/10/07 04:27:06;;;;;;;31.83;28.70;;;;;;;;;;5111614;28;20446;-77
2023/10/07 04:29:33;;;;;;;31.50;29.07;;;;;;;;;;5111601;28;20452;-76
2023/10/07 04:32:10;;;;;;;31.03;28.40;;;;;;;;;;5111377;28;20473;-76
2023/10/07 04:34:49;;;;;;;32.10;29.27;;;;;;;;;;5110642;28;20893;-77
2023/10/07 04:43:37;;;;;;;32.63;29.63;;;;;;;;;;5086985;28;20515;-76
2023/10/07 04:46:12;;;;;;;33.30;30.60;;;;;;;;;;5087188;28;20431;-77
2023/10/07 04:48:54;;;;;;;31.00;28.00;;;;;;;;;;5088200;28;20424;-77
2023/10/07 04:51:46;;;;;;;33.23;30.10;;;;;;;;;;5088101;28;21146;-75
2023/10/07 04:54:08;;;;;;;34.87;31.63;;;;;;;;;;5086888;28;20414;-76
2023/10/07 04:56:35;;;;;;;33.07;30.47;;;;;;;;;;5087619;28;20471;-75
2023/10/07 04:59:05;;;;;;;36.43;32.90;;;;;;;;;;5087675;28;20420;-75
2023/10/07 05:01:33;;;;;;;36.93;33.00;;;;;;;;;;5087802;28;20856;-77
2023/10/07 05:04:03;;;;;;;32.50;29.63;;;;;;;;;;5086530;28;20475;-76
2023/10/07 05:06:34;;;;;;;36.40;33.00;;;;;;;;;;5083421;28;20455;-77
2023/10/07 05:09:03;;;;;;;35.53;32.10;;;;;;;;;;5079716;28;20434;-75
2023/10/07 05:11:29;;;;;;;36.67;33.10;;;;;;;;;;5087341;28;20448;-77
2023/10/07 05:13:56;;;;;;;35.63;32.43;;;;;;;;;;5086819;28;20434;-76
2023/10/07 05:16:25;;;;;;;38.00;34.60;;;;;;;;;;5087651;28;20436;-77
2023/10/07 05:18:52;;;;;;;39.27;35.53;;;;;;;;;;5087499;28;20459;-76
2023/10/07 05:21:21;;;;;;;39.33;35.17;;;;;;;;;;5087191;28;20510;-76
2023/10/07 05:23:48;;;;;;;39.27;35.77;;;;;;;;;;5086633;28;20508;-77
2023/10/07 05:26:17;;;;;;;39.10;35.20;;;;;;;;;;5086746;28;20592;-77
2023/10/07 05:28:44;;;;;;;40.13;36.57;;;;;;;;;;5087258;28;20495;-76
2023/10/07 05:31:14;;;;;;;40.30;36.70;;;;;;;;;;5087149;28;20835;-77
2023/10/07 05:33:44;;;;;;;39.27;35.37;;;;;;;;;;5079804;28;20454;-76
2023/10/07 05:36:13;;;;;;;39.50;36.00;;;;;;;;;;5066252;28;20820;-76
2023/10/07 05:38:40;;;;;;;39.10;35.50;;;;;;;;;;5066417;28;20915;-76
2023/10/07 05:41:12;;;;;;;38.97;35.67;;;;;;;;;;5066475;28;20953;-77
2023/10/07 05:43:39;;;;;;;40.50;37.03;;;;;;;;;;5066869;28;20452;-76
2023/10/07 05:46:06;;;;;;;42.00;37.87;;;;;;;;;;5066266;28;20813;-75
2023/10/07 05:48:37;;;;;;;41.37;36.90;;;;;;;;;;5066771;28;20777;-76
2023/10/07 05:51:07;;;;;;;41.70;36.20;;;;;;;;;;5066299;28;20940;-77
2023/10/07 05:53:36;;;;;;;41.20;37.33;;;;;;;;;;5059363;28;20890;-77
2023/10/07 05:56:05;;;;;;;37.73;34.10;;;;;;;;;;5052860;28;20425;-76
2023/10/07 05:58:32;;;;;;;47.70;38.77;;;;;;;;;;5052429;28;20454;-76
2023/10/07 06:01:00;;;;;;;41.80;37.03;;;;;;;;;;5072506;28;20455;-76
2023/10/07 06:03:28;;;;;;;45.73;40.97;;;;;;;;;;5073328;28;20481;-76
2023/10/07 06:05:57;;;;;;;44.13;39.87;;;;;;;;;;5072595;28;20429;-76
2023/10/07 06:08:26;;;;;;;48.10;41.67;;;;;;;;;;5073174;28;20427;-76
2023/10/07 06:10:56;;;;;;;47.90;42.87;;;;;;;;;;5072823;28;20515;-77
2023/10/07 06:13:23;;;;;;;48.77;43.97;;;;;;;;;;5072846;28;20446;-76
2023/10/07 06:15:50;;;;;;;46.40;41.60;;;;;;;;;;5072672;28;20442;-76
2023/10/07 06:18:18;;;;;;;47.03;42.23;;;;;;;;;;5072199;28;20812;-77
2023/10/07 06:20:47;;;;;;;47.70;41.17;;;;;;;;;;5072851;28;20456;-78
2023/10/07 06:23:15;;;;;;;45.57;41.07;;;;;;;;;;5072855;28;20517;-76
2023/10/07 06:25:48;;;;;;;47.43;42.07;;;;;;;;;;5072175;28;20452;-77
2023/10/07 06:28:24;;;;;;;50.47;44.33;;;;;;;;;;5072645;28;20474;-77
2023/10/07 06:30:51;;;;;;;42.20;37.20;;;;;;;;;;5072536;28;20773;-76
2023/10/07 06:33:19;;;;;;;49.87;45.00;;;;;;;;;;5072302;28;20424;-76
2023/10/07 06:35:46;;;;;;;48.63;43.50;;;;;;;;;;5069545;28;20642;-75
2023/10/07 06:38:19;;;;;;;52.40;46.77;;;;;;;;;;5052375;28;20494;-77
2023/10/07 06:40:49;;;;;;;49.97;44.77;;;;;;;;;;5052617;28;20437;-76
2023/10/07 06:43:16;;;;;;;50.57;45.37;;;;;;;;;;5052268;28;21371;-76
2023/10/07 06:45:44;;;;;;;49.43;44.33;;;;;;;;;;5051992;28;20462;-76
2023/10/07 06:48:12;;;;;;;47.77;42.80;;;;;;;;;;5056375;28;20831;-77
2023/10/07 06:50:41;;;;;;;52.10;46.63;;;;;;;;;;5062116;28;20454;-76
2023/10/07 06:53:11;;;;;;;53.37;43.20;;;;;;;;;;5072172;28;20450;-77
2023/10/07 06:55:43;;;;;;;52.97;47.47;;;;;;;;;;5072243;28;20417;-76
2023/10/07 06:58:12;;;;;;;56.80;45.50;;;;;;;;;;5072256;28;20440;-77
2023/10/07 07:00:47;;;;;;;50.03;42.80;;;;;;;;;;5072280;28;20412;-75
2023/10/07 07:03:14;;;;;;;49.13;43.93;;;;;;;;;;5072183;28;20523;-75
2023/10/07 07:05:41;;;;;;;51.27;41.73;;;;;;;;;;5070714;28;20428;-74
2023/10/07 07:08:10;;;;;;;55.90;46.90;;;;;;;;;;5062569;28;20968;-76
2023/10/07 07:10:36;;;;;;;57.70;45.37;;;;;;;;;;5056946;28;20429;-75
2023/10/07 07:13:12;;;;;;;50.50;40.47;;;;;;;;;;5051957;28;20499;-74
2023/10/07 07:15:42;;;;;;;53.73;47.47;;;;;;;;;;5051368;28;20511;-76
2023/10/07 07:18:16;;;;;;;52.43;46.80;;;;;;;;;;5051455;28;20537;-76
2023/10/07 07:21:13;;;;;;;51.80;43.33;;;;;;;;;;5051521;28;20490;-76
2023/10/07 07:23:43;;;;;;;52.00;46.47;;;;;;;;;;5051642;28;20477;-76
2023/10/07 07:26:11;;;;;;;55.00;45.97;;;;;;;;;;5050951;28;20945;-75
2023/10/07 07:28:43;;;;;;;49.77;43.30;;;;;;;;;;5061470;28;20874;-75
2023/10/07 07:31:18;;;;;;;56.13;46.67;;;;;;;;;;5062120;28;20422;-74
2023/10/07 07:33:48;;;;;;;53.27;47.53;;;;;;;;;;5071229;28;20441;-75
2023/10/07 07:36:37;;;;;;;54.63;46.90;;;;;;;;;;5069773;28;20458;-75
2023/10/07 07:39:06;;;;;;;53.37;46.90;;;;;;;;;;5051357;28;20473;-78
2023/10/07 07:41:37;;;;;;;50.37;44.10;;;;;;;;;;5063720;28;20873;-76
2023/10/07 07:44:10;;;;;;;49.90;42.30;;;;;;;;;;5070855;28;20488;-75
2023/10/07 07:46:51;;;;;;;56.57;41.97;;;;;;;;;;5072985;28;20568;-82
2023/10/07 07:49:19;;;;;;;48.00;42.53;;;;;;;;;;5073006;28;20454;-76
2023/10/07 07:51:51;;;;;;;52.63;41.93;;;;;;;;;;5071725;28;20425;-75
2023/10/07 07:54:18;;;;;;;57.20;46.27;;;;;;;;;;5070892;28;20426;-75
2023/10/07 07:56:48;;;;;;;47.53;42.20;;;;;;;;;;5063932;28;20453;-75
2023/10/07 07:59:15;;;;;;;45.77;38.90;;;;;;;;;;5051258;28;20457;-75
2023/10/07 08:01:46;;;;;;;39.10;35.00;;;;;;;;;;5050810;28;20454;-74
2023/10/07 08:04:18;;;;;;;46.07;41.00;;;;;;;;;;5049579;28;21010;-75
2023/10/07 08:06:47;;;;;;;51.90;46.27;;;;;;;;;;5051239;28;20440;-75
2023/10/07 08:09:19;;;;;;;50.77;44.50;;;;;;;;;;5051179;28;21111;-75
2023/10/07 08:11:46;;;;;;;46.43;41.33;;;;;;;;;;5050851;28;20454;-76
2023/10/07 08:14:13;;;;;;;50.70;44.60;;;;;;;;;;5050160;28;20420;-74
2023/10/07 08:16:50;;;;;;;55.50;45.97;;;;;;;;;;5050491;28;21074;-75
2023/10/07 08:19:20;;;;;;;49.17;42.40;;;;;;;;;;5051268;28;20420;-75
2023/10/07 08:21:51;;;;;;;48.67;40.00;;;;;;;;;;5050489;28;20455;-77
2023/10/07 08:24:18;;;;;;;45.17;40.03;;;;;;;;;;5053934;28;20442;-80
2023/10/07 08:26:48;;;;;;;51.00;45.53;;;;;;;;;;5056766;28;20460;-83
2023/10/07 08:29:31;;;;;;;44.47;39.50;;;;;;;;;;5056132;28;20793;-84
2023/10/07 08:31:58;;;;;;;46.23;37.77;;;;;;;;;;5060093;28;20532;-80
2023/10/07 08:34:34;;;;;;;55.20;46.27;;;;;;;;;;5056553;28;20453;-80
2023/10/07 08:37:02;;;;;;;56.83;45.37;;;;;;;;;;5058043;28;20474;-81
2023/10/07 08:39:44;;;;;;;52.97;47.40;;;;;;;;;;5058005;28;20454;-81
2023/10/07 08:42:13;;;;;;;51.43;45.83;;;;;;;;;;5057301;28;20493;-81
2023/10/07 08:44:40;;;;;;;36.43;32.73;;;;;;;;;;5057468;28;20815;-81
2023/10/07 08:47:11;;;;;;;39.73;35.77;;;;;;;;;;5057878;28;20445;-79
2023/10/07 08:49:40;;;;;;;48.17;43.47;;;;;;;;;;5057609;28;20435;-80
2023/10/07 08:52:09;;;;;;;50.23;44.83;;;;;;;;;;5057324;28;20529;-81
2023/10/07 08:54:38;;;;;;;51.17;46.17;;;;;;;;;;5057018;28;20425;-81
2023/10/07 08:57:09;;;;;;;50.07;44.83;;;;;;;;;;5068293;28;20485;-80
2023/10/07 08:59:40;;;;;;;46.80;41.90;;;;;;;;;;5077006;28;20444;-80
2023/10/07 09:02:13;;;;;;;49.57;44.57;;;;;;;;;;5077535;28;20420;-80
2023/10/07 09:04:41;;;;;;;47.43;42.33;;;;;;;;;;5076654;28;20401;-80
2023/10/07 09:07:09;;;;;;;47.87;43.07;;;;;;;;;;5077750;28;20473;-80
2023/10/07 09:09:39;;;;;;;43.17;38.90;;;;;;;;;;5077446;28;20465;-80
2023/10/07 09:12:14;;;;;;;48.73;43.50;;;;;;;;;;5077638;28;20405;-81
2023/10/07 09:14:52;;;;;;;50.07;44.93;;;;;;;;;;5077806;28;20515;-80
2023/10/07 09:17:21;;;;;;;48.47;43.87;;;;;;;;;;5077486;28;20798;-81
2023/10/07 09:19:52;;;;;;;46.67;42.00;;;;;;;;;;5077177;28;20429;-84
2023/10/07 09:22:24;;;;;;;48.50;43.47;;;;;;;;;;5077858;28;20428;-80
2023/10/07 09:24:54;;;;;;;48.17;43.40;;;;;;;;;;5077066;28;20416;-81
2023/10/07 09:27:36;;;;;;;47.93;43.23;;;;;;;;;;5077598;28;20484;-80
2023/10/07 09:30:15;;;;;;;46.03;41.37;;;;;;;;;;5081588;28;20416;-81
2023/10/07 09:32:44;;;;;;;36.90;33.30;;;;;;;;;;5081224;28;20441;-80
2023/10/07 09:35:19;;;;;;;44.57;40.43;;;;;;;;;;5081249;28;20450;-81
2023/10/07 09:37:47;;;;;;;40.63;36.80;;;;;;;;;;5081258;28;20527;-80
2023/10/07 09:41:06;;;;;;;43.53;39.53;;;;;;;;;;5080846;28;20420;-80
2023/10/07 09:43:07;;;;;;;42.70;38.57;;;;;;;;;;5080848;28;20498;-81
2023/10/07 09:45:38;;;;;;;42.03;38.13;;;;;;;;;;5081393;28;20511;-81
2023/10/07 09:48:06;;;;;;;41.97;38.23;;;;;;;;;;5063081;28;20476;-81
2023/10/07 09:50:37;;;;;;;41.63;38.13;;;;;;;;;;5062600;28;20445;-80
2023/10/07 09:53:15;;;;;;;37.90;34.60;;;;;;;;;;5062585;28;20443;-80
2023/10/07 09:55:48;;;;;;;43.63;39.73;;;;;;;;;;5061343;28;20431;-80
2023/10/07 09:58:29;;;;;;;41.10;37.70;;;;;;;;;;5061443;28;20462;-80
2023/10/07 10:01:04;;;;;;;42.43;38.33;;;;;;;;;;5061795;28;20429;-81
2023/10/07 10:03:39;;;;;;;40.27;36.97;;;;;;;;;;5061570;28;20449;-81
2023/10/07 10:06:18;;;;;;;29.40;27.17;;;;;;;;;;5060752;28;20434;-80
2023/10/07 10:08:57;;;;;;;30.73;28.33;;;;;;;;;;5061784;28;20457;-81
2023/10/07 10:11:31;;;;;;;37.00;33.87;;;;;;;;;;5061989;28;20459;-81
2023/10/07 10:14:16;;;;;;;35.10;32.40;;;;;;;;;;5061389;28;20774;-81
2023/10/07 10:16:47;;;;;;;35.07;32.40;;;;;;;;;;5060259;28;20488;-80
2023/10/07 10:19:25;;;;;;;34.17;31.40;;;;;;;;;;5060974;28;20439;-81
2023/10/07 10:21:53;;;;;;;34.60;31.90;;;;;;;;;;5061785;28;20439;-81
2023/10/07 10:24:24;;;;;;;31.27;28.70;;;;;;;;;;5070112;28;20501;-81
2023/10/07 10:26:51;;;;;;;29.53;27.27;;;;;;;;;;5081509;28;20451;-80
2023/10/07 10:29:25;;;;;;;30.00;27.50;;;;;;;;;;5080960;28;20499;-80
2023/10/07 10:31:52;;;;;;;30.83;28.50;;;;;;;;;;5065061;28;20477;-80
2023/10/07 10:34:21;;;;;;;30.27;27.73;;;;;;;;;;5056066;28;20493;-81
2023/10/07 10:36:51;;;;;;;28.43;26.13;;;;;;;;;;5070856;28;20479;-81
2023/10/07 10:39:23;;;;;;;27.17;25.27;;;;;;;;;;5060491;28;20797;-81
2023/10/07 10:41:51;;;;;;;26.80;25.00;;;;;;;;;;5054271;28;20463;-79
2023/10/07 10:44:20;;;;;;;26.03;24.33;;;;;;;;;;5052712;28;20502;-77
2023/10/07 10:46:48;;;;;;;25.50;23.23;;;;;;;;;;5058747;28;21011;-77
2023/10/07 10:49:16;;;;;;;24.23;22.73;;;;;;;;;;5072896;28;20449;-75
2023/10/07 10:51:45;;;;;;;25.30;23.50;;;;;;;;;;5053133;28;20450;-75
2023/10/07 10:54:14;;;;;;;23.40;21.80;;;;;;;;;;5051881;28;20417;-75
2023/10/07 10:56:48;;;;;;;23.70;22.20;;;;;;;;;;5058506;28;20466;-74
2023/10/07 10:59:15;;;;;;;22.73;21.23;;;;;;;;;;5072054;28;20455;-75
2023/10/07 11:01:44;;;;;;;22.80;21.50;;;;;;;;;;5072239;28;20536;-74
2023/10/07 11:04:13;;;;;;;23.50;21.80;;;;;;;;;;5071610;28;20542;-74
2023/10/07 11:06:40;;;;;;;23.07;21.57;;;;;;;;;;5072314;28;20527;-75
2023/10/07 11:09:09;;;;;;;21.87;20.57;;;;;;;;;;5072272;28;20457;-74
2023/10/07 11:11:37;;;;;;;22.77;21.30;;;;;;;;;;5071750;28;20453;-74
2023/10/07 11:14:09;;;;;;;22.30;20.63;;;;;;;;;;5069241;28;20452;-74
2023/10/07 11:16:44;;;;;;;21.57;20.20;;;;;;;;;;5071969;28;20531;-73
2023/10/07 11:19:12;;;;;;;23.63;21.93;;;;;;;;;;5071694;28;20876;-74
2023/10/07 11:21:44;;;;;;;20.80;19.60;;;;;;;;;;5071964;28;20485;-74
2023/10/07 11:24:14;;;;;;;21.33;20.00;;;;;;;;;;5060567;28;20485;-74
2023/10/07 11:26:42;;;;;;;21.30;20.00;;;;;;;;;;5052069;28;20497;-76
2023/10/07 11:29:14;;;;;;;19.50;18.50;;;;;;;;;;5051878;28;20446;-74
2023/10/07 11:31:42;;;;;;;19.67;18.40;;;;;;;;;;5064823;28;20449;-74
2023/10/07 11:34:10;;;;;;;20.37;19.20;;;;;;;;;;5071025;28;20520;-75
2023/10/07 11:36:44;;;;;;;20.90;19.43;;;;;;;;;;5071749;28;20465;-75
2023/10/07 11:39:13;;;;;;;21.73;20.40;;;;;;;;;;5062758;28;20482;-75
2023/10/07 11:41:41;;;;;;;21.07;19.67;;;;;;;;;;5053623;28;21175;-76
2023/10/07 11:44:10;;;;;;;21.03;19.50;;;;;;;;;;5060645;28;20505;-75
2023/10/07 11:46:40;;;;;;;20.53;19.33;;;;;;;;;;5065602;28;20511;-77
2023/10/07 11:49:08;;;;;;;20.50;19.23;;;;;;;;;;5050889;28;20453;-83
2023/10/07 11:51:35;;;;;;;21.23;19.93;;;;;;;;;;5050740;28;20542;-79
2023/10/07 11:54:02;;;;;;;19.93;18.83;;;;;;;;;;5053938;28;20454;-83
2023/10/07 11:56:29;;;;;;;21.73;20.33;;;;;;;;;;5055185;28;20482;-82
2023/10/07 11:58:56;;;;;;;21.07;19.87;;;;;;;;;;5052660;28;20444;-78
2023/10/07 12:01:23;;;;;;;20.90;19.20;;;;;;;;;;5051571;28;20428;-75
2023/10/07 12:03:53;;;;;;;22.47;20.60;;;;;;;;;;5051840;28;21130;-77
2023/10/07 12:06:20;;;;;;;20.43;19.23;;;;;;;;;;5051752;28;20986;-77
2023/10/07 12:08:47;;;;;;;21.07;19.80;;;;;;;;;;5051894;28;20477;-77
2023/10/07 12:11:14;;;;;;;22.37;20.60;;;;;;;;;;5051073;28;20438;-77
2023/10/07 12:13:41;;;;;;;21.27;19.97;;;;;;;;;;5050878;28;20450;-76
2023/10/07 12:16:09;;;;;;;20.73;19.13;;;;;;;;;;5050426;28;20930;-77
2023/10/07 12:18:36;;;;;;;21.30;19.80;;;;;;;;;;5051325;28;20462;-76
2023/10/07 12:21:12;;;;;;;20.70;19.30;;;;;;;;;;5050890;28;20451;-76
2023/10/07 12:23:41;;;;;;;21.17;19.40;;;;;;;;;;5050807;28;20506;-77
2023/10/07 12:26:12;;;;;;;19.47;18.37;;;;;;;;;;5050247;28;20445;-77
2023/10/07 12:28:39;;;;;;;19.67;18.40;;;;;;;;;;5050717;28;20430;-77
2023/10/07 12:31:12;;;;;;;19.67;18.57;;;;;;;;;;5052233;28;20466;-76
2023/10/07 12:33:39;;;;;;;22.13;20.57;;;;;;;;;;5051285;28;20799;-76
2023/10/07 12:36:15;;;;;;;21.70;20.30;;;;;;;;;;5066205;28;20450;-76
2023/10/07 12:38:42;;;;;;;20.80;19.60;;;;;;;;;;5051638;28;20433;-75
2023/10/07 12:41:09;;;;;;;22.50;20.50;;;;;;;;;;5051253;28;20455;-79
2023/10/07 12:43:37;;;;;;;21.07;19.77;;;;;;;;;;5052466;28;20459;-75
2023/10/07 12:46:09;;;;;;;20.80;19.30;;;;;;;;;;5050903;28;20488;-75
2023/10/07 12:48:36;;;;;;;21.63;20.10;;;;;;;;;;5050445;28;20913;-78
2023/10/07 12:51:04;;;;;;;20.13;18.93;;;;;;;;;;5050551;28;20463;-78
2023/10/07 12:53:33;;;;;;;22.27;20.60;;;;;;;;;;5050107;28;20474;-77
2023/10/07 12:56:00;;;;;;;21.00;19.50;;;;;;;;;;5049905;28;20496;-78
2023/10/07 12:58:27;;;;;;;20.67;19.17;;;;;;;;;;5050133;28;21290;-78
2023/10/07 13:00:55;;;;;;;21.80;19.93;;;;;;;;;;5050363;28;20512;-77
2023/10/07 13:03:22;;;;;;;20.43;18.90;;;;;;;;;;5051196;28;20464;-78
2023/10/07 13:05:49;;;;;;;21.13;19.73;;;;;;;;;;5053722;28;20581;-76
2023/10/07 13:08:16;;;;;;;20.63;19.43;;;;;;;;;;5054235;28;20469;-77
2023/10/07 13:10:44;;;;;;;21.13;19.63;;;;;;;;;;5054341;28;20449;-78
2023/10/07 13:13:13;;;;;;;21.17;19.67;;;;;;;;;;5054355;28;20428;-77
2023/10/07 13:15:42;;;;;;;20.90;19.50;;;;;;;;;;5053895;28;20445;-77
2023/10/07 13:18:09;;;;;;;22.60;21.10;;;;;;;;;;5054301;28;20502;-76
2023/10/07 13:20:38;;;;;;;21.57;19.77;;;;;;;;;;5053971;28;20971;-78
2023/10/07 13:23:06;;;;;;;20.60;19.40;;;;;;;;;;5054016;28;20428;-78
2023/10/07 13:25:34;;;;;;;22.40;20.63;;;;;;;;;;5054864;28;20572;-77
2023/10/07 13:28:03;;;;;;;21.37;19.87;;;;;;;;;;5060171;28;20441;-78
2023/10/07 13:30:30;;;;;;;21.17;19.87;;;;;;;;;;5053952;28;20796;-77
2023/10/07 13:32:57;;;;;;;21.10;19.70;;;;;;;;;;5053915;28;20425;-77
2023/10/07 13:35:27;;;;;;;21.30;19.63;;;;;;;;;;5053472;28;20462;-77
2023/10/07 13:37:56;;;;;;;20.63;19.23;;;;;;;;;;5053568;28;20441;-77
2023/10/07 13:40:23;;;;;;;20.43;19.23;;;;;;;;;;5053878;28;20429;-77
2023/10/07 13:42:51;;;;;;;23.07;21.27;;;;;;;;;;5053427;28;20432;-78
2023/10/07 13:45:21;;;;;;;21.60;20.30;;;;;;;;;;5053122;28;20569;-77
2023/10/07 13:47:49;;;;;;;20.03;18.83;;;;;;;;;;5053610;28;20469;-78
2023/10/07 13:50:17;;;;;;;21.33;19.90;;;;;;;;;;5053579;28;20420;-76
2023/10/07 13:52:51;;;;;;;21.23;19.73;;;;;;;;;;5053801;28;20473;-77
2023/10/07 13:55:33;;;;;;;21.50;20.20;;;;;;;;;;5053123;28;20456;-78
2023/10/07 13:58:00;;;;;;;22.10;20.77;;;;;;;;;;5053549;28;20474;-77
2023/10/07 14:00:35;;;;;;;23.00;21.63;;;;;;;;;;5053374;28;20529;-77
2023/10/07 14:03:04;;;;;;;21.97;20.27;;;;;;;;;;5053130;28;20431;-77
2023/10/07 14:05:36;;;;;;;21.97;20.23;;;;;;;;;;5052671;28;20893;-77
2023/10/07 14:08:10;;;;;;;21.60;20.30;;;;;;;;;;5053295;28;20524;-77
2023/10/07 14:10:38;;;;;;;22.33;20.73;;;;;;;;;;5053318;28;20488;-76
2023/10/07 14:13:05;;;;;;;22.17;20.83;;;;;;;;;;5053264;28;20450;-78
2023/10/07 14:15:35;;;;;;;22.03;20.83;;;;;;;;;;5052300;28;20530;-76
2023/10/07 14:18:02;;;;;;;22.00;20.60;;;;;;;;;;5052750;28;20466;-77
2023/10/07 14:20:31;;;;;;;22.63;20.80;;;;;;;;;;5053042;28;20473;-77
2023/10/07 14:22:59;;;;;;;21.43;19.90;;;;;;;;;;5051979;28;20478;-77
2023/10/07 14:25:26;;;;;;;22.30;20.60;;;;;;;;;;5051988;28;20976;-77
2023/10/07 14:27:54;;;;;;;23.00;21.30;;;;;;;;;;5052833;28;20481;-77
2023/10/07 14:30:22;;;;;;;21.13;19.73;;;;;;;;;;5052932;28;20982;-76
2023/10/07 14:32:50;;;;;;;22.93;21.27;;;;;;;;;;5052996;28;20483;-77
2023/10/07 14:35:17;;;;;;;21.63;20.10;;;;;;;;;;5052444;28;20418;-77
2023/10/07 14:37:45;;;;;;;22.20;20.60;;;;;;;;;;5052604;28;20449;-77
2023/10/07 14:40:17;;;;;;;23.43;21.80;;;;;;;;;;5052451;28;20405;-77
2023/10/07 14:42:44;;;;;;;22.23;20.83;;;;;;;;;;5052129;28;20493;-77
2023/10/07 14:45:12;;;;;;;22.47;20.80;;;;;;;;;;5051770;28;20493;-77
2023/10/07 14:47:39;;;;;;;22.10;20.70;;;;;;;;;;5052456;28;20452;-78